Time;durP1;ratioP1;P1;durP2;ratioP2;P2;SDS_P1;SDS_P2;PMS_P1;PMS_P2;Temp;Humidity;BMP_temperature;BMP_pressure;BME280_temperature;BME280_humidity;BME280_pressure;Samples;Min_cycle;Max_cycle;Signal;HPM_P1;HPM_P2
2021/12/05 00:21:41;;;;;;;58.85;13.82;;;;;;;;;;4976334;28;20154;-86
2021/12/05 00:24:13;;;;;;;65.82;14.50;;;;;;;;;;4964092;28;20036;-87
2021/12/05 00:26:40;;;;;;;68.85;14.98;;;;;;;;;;4977763;28;20675;-87
2021/12/05 00:29:17;;;;;;;63.53;15.23;;;;;;;;;;4966805;28;20416;-87
2021/12/05 00:31:57;;;;;;;66.82;14.20;;;;;;;;;;4962499;28;20093;-86
2021/12/05 00:34:38;;;;;;;62.42;14.60;;;;;;;;;;4977002;28;20026;-86
2021/12/05 00:43:11;;;;;;;52.50;13.55;;;;;;;;;;4979301;28;20035;-87
2021/12/05 01:09:11;;;;;;;45.15;11.23;;;;;;;;;;4980193;28;20668;-86
2021/12/05 01:14:51;;;;;;;39.83;11.02;;;;;;;;;;4982684;28;20045;-86
2021/12/05 01:17:20;;;;;;;42.08;9.82;;;;;;;;;;4975494;28;20054;-88
2021/12/05 01:19:47;;;;;;;36.53;10.50;;;;;;;;;;4976970;28;20237;-87
2021/12/05 01:22:16;;;;;;;43.33;11.05;;;;;;;;;;4978429;28;20398;-86
2021/12/05 01:28:05;;;;;;;36.83;10.02;;;;;;;;;;4972257;28;20034;-86
2021/12/05 01:30:27;;;;;;;35.30;9.98;;;;;;;;;;4968817;28;20034;-87
2021/12/05 01:33:14;;;;;;;29.80;9.32;;;;;;;;;;4980363;28;20030;-86
2021/12/05 01:36:04;;;;;;;28.67;7.60;;;;;;;;;;4963857;28;20494;-88
2021/12/05 01:55:20;;;;;;;28.48;7.28;;;;;;;;;;4983001;28;20139;-86
2021/12/05 01:58:10;;;;;;;23.98;7.68;;;;;;;;;;4979926;28;20033;-88
2021/12/05 02:34:02;;;;;;;22.42;6.93;;;;;;;;;;4959968;28;20054;-86
2021/12/05 02:36:44;;;;;;;32.00;8.18;;;;;;;;;;4958653;28;20062;-87
2021/12/05 02:41:51;;;;;;;30.67;8.10;;;;;;;;;;4960380;28;20491;-87
2021/12/05 02:44:22;;;;;;;22.63;8.70;;;;;;;;;;4962548;28;20030;-87
2021/12/05 02:46:58;;;;;;;27.27;8.45;;;;;;;;;;4960903;28;20026;-87
2021/12/05 02:49:25;;;;;;;27.35;8.45;;;;;;;;;;4961731;28;20097;-86
2021/12/05 02:52:03;;;;;;;27.63;7.95;;;;;;;;;;4943834;28;20332;-87
2021/12/05 02:54:33;;;;;;;26.20;7.88;;;;;;;;;;4943807;28;20071;-87
2021/12/05 02:56:59;;;;;;;26.70;7.22;;;;;;;;;;4931672;28;20037;-86
2021/12/05 03:02:13;;;;;;;15.10;4.32;;;;;;;;;;4959417;28;20046;-87
2021/12/05 03:04:42;;;;;;;28.70;7.88;;;;;;;;;;4959033;28;20027;-86
2021/12/05 03:07:10;;;;;;;25.30;5.38;;;;;;;;;;4943964;28;20118;-88
2021/12/05 03:09:38;;;;;;;18.48;6.47;;;;;;;;;;4943551;28;20026;-87
2021/12/05 03:12:04;;;;;;;24.05;8.02;;;;;;;;;;4964145;28;20047;-87
2021/12/05 03:14:31;;;;;;;23.55;7.55;;;;;;;;;;4976308;28;20030;-86
2021/12/05 03:16:57;;;;;;;15.57;4.15;;;;;;;;;;4976618;28;20297;-87
2021/12/05 03:19:23;;;;;;;30.45;8.38;;;;;;;;;;4972586;28;20034;-88
2021/12/05 03:21:49;;;;;;;20.95;7.18;;;;;;;;;;4976951;28;20022;-87
2021/12/05 03:24:16;;;;;;;20.08;7.05;;;;;;;;;;4963399;28;20113;-87
2021/12/05 03:26:44;;;;;;;16.95;6.20;;;;;;;;;;4964211;28;20038;-88
2021/12/05 03:29:11;;;;;;;30.55;8.32;;;;;;;;;;4970336;28;20224;-86
2021/12/05 03:31:38;;;;;;;25.75;5.70;;;;;;;;;;4977426;28;20137;-88
2021/12/05 03:34:06;;;;;;;23.85;7.15;;;;;;;;;;4974135;28;20031;-87
2021/12/05 03:36:32;;;;;;;29.75;8.50;;;;;;;;;;4981325;28;20110;-87
2021/12/05 03:38:58;;;;;;;24.23;8.15;;;;;;;;;;4962207;28;20236;-87
2021/12/05 03:41:24;;;;;;;25.17;8.63;;;;;;;;;;4965257;28;20030;-87
2021/12/05 03:43:51;;;;;;;29.17;9.20;;;;;;;;;;4972850;28;20486;-86
2021/12/05 03:46:18;;;;;;;26.50;8.38;;;;;;;;;;4979204;28;20042;-87
2021/12/05 03:48:47;;;;;;;35.20;7.63;;;;;;;;;;4978851;28;20467;-87
2021/12/05 03:51:16;;;;;;;35.83;8.57;;;;;;;;;;4981024;28;20034;-87
2021/12/05 03:53:42;;;;;;;18.80;5.63;;;;;;;;;;4971878;28;20546;-86
2021/12/05 03:56:08;;;;;;;28.08;8.57;;;;;;;;;;4962379;28;20041;-86
2021/12/05 03:58:36;;;;;;;23.85;8.50;;;;;;;;;;4982340;28;20624;-87
2021/12/05 04:01:03;;;;;;;33.75;8.02;;;;;;;;;;4974047;28;20031;-87
2021/12/05 04:03:29;;;;;;;27.15;7.38;;;;;;;;;;4973645;28;20414;-87
2021/12/05 04:05:56;;;;;;;30.00;9.15;;;;;;;;;;4968385;28;20538;-87
2021/12/05 04:08:25;;;;;;;27.23;9.15;;;;;;;;;;4974203;28;20175;-89
2021/12/05 04:10:53;;;;;;;26.70;8.43;;;;;;;;;;4961957;28;20970;-86
2021/12/05 04:13:19;;;;;;;28.50;10.18;;;;;;;;;;4952841;28;20475;-86
2021/12/05 04:15:45;;;;;;;25.92;9.63;;;;;;;;;;4945528;28;20380;-88
2021/12/05 04:18:11;;;;;;;41.10;9.63;;;;;;;;;;4942746;28;20485;-88
2021/12/05 04:20:37;;;;;;;25.48;9.43;;;;;;;;;;4943344;28;20483;-87
2021/12/05 04:23:04;;;;;;;39.50;9.98;;;;;;;;;;4944615;28;20039;-87
2021/12/05 04:25:35;;;;;;;23.58;9.07;;;;;;;;;;4943205;28;20031;-87
2021/12/05 04:28:01;;;;;;;20.95;6.90;;;;;;;;;;4945737;28;20521;-86
2021/12/05 04:30:27;;;;;;;33.67;10.02;;;;;;;;;;4946787;28;21593;-90
2021/12/05 04:32:53;;;;;;;29.25;10.90;;;;;;;;;;4957181;28;20039;-87
2021/12/05 04:35:19;;;;;;;38.25;10.95;;;;;;;;;;4961885;28;20067;-88
2021/12/05 04:37:45;;;;;;;32.00;11.90;;;;;;;;;;4950425;28;20523;-87
2021/12/05 04:40:12;;;;;;;38.53;10.88;;;;;;;;;;4947918;28;20560;-87
2021/12/05 04:42:38;;;;;;;42.25;12.68;;;;;;;;;;4952177;28;20111;-87
2021/12/05 04:45:07;;;;;;;42.50;11.07;;;;;;;;;;4947086;28;20038;-87
2021/12/05 04:47:33;;;;;;;34.72;11.38;;;;;;;;;;4966498;28;20383;-87
2021/12/05 04:49:59;;;;;;;28.38;10.75;;;;;;;;;;4946562;28;20494;-88
2021/12/05 04:52:25;;;;;;;46.17;12.40;;;;;;;;;;4961927;28;20039;-87
2021/12/05 04:54:51;;;;;;;41.35;10.68;;;;;;;;;;4946522;28;20034;-87
2021/12/05 04:57:17;;;;;;;37.05;11.55;;;;;;;;;;4948475;28;20121;-87
2021/12/05 04:59:49;;;;;;;34.30;10.98;;;;;;;;;;4961877;28;20178;-88
2021/12/05 05:02:16;;;;;;;40.47;14.27;;;;;;;;;;4947081;28;20035;-88
2021/12/05 05:04:45;;;;;;;39.75;13.43;;;;;;;;;;4949154;28;20109;-88
2021/12/05 05:07:17;;;;;;;46.15;14.05;;;;;;;;;;4946377;28;20530;-89
2021/12/05 05:09:43;;;;;;;32.88;10.40;;;;;;;;;;4947308;28;20050;-88
2021/12/05 05:12:10;;;;;;;36.47;11.13;;;;;;;;;;4952670;28;20045;-88
2021/12/05 05:14:36;;;;;;;42.30;13.25;;;;;;;;;;4962129;28;20035;-87
2021/12/05 05:17:03;;;;;;;31.98;10.95;;;;;;;;;;4946748;28;20074;-88
2021/12/05 05:19:35;;;;;;;44.88;11.95;;;;;;;;;;4940812;28;20038;-87
2021/12/05 05:30:05;;;;;;;31.88;11.30;;;;;;;;;;4964036;28;20042;-89
2021/12/05 05:43:22;;;;;;;46.80;12.40;;;;;;;;;;4961820;28;20126;-87
2021/12/05 05:46:00;;;;;;;44.80;12.38;;;;;;;;;;4946844;28;20037;-88
2021/12/05 05:50:53;;;;;;;41.00;13.00;;;;;;;;;;4960862;28;20058;-88
2021/12/05 05:53:19;;;;;;;44.50;10.77;;;;;;;;;;4945302;28;20039;-86
2021/12/05 05:55:46;;;;;;;40.78;11.77;;;;;;;;;;4944964;28;20037;-89
2021/12/05 05:58:16;;;;;;;35.03;10.30;;;;;;;;;;4946841;28;20200;-87
2021/12/05 06:01:01;;;;;;;31.40;9.95;;;;;;;;;;4945223;28;20031;-87
2021/12/05 06:03:28;;;;;;;35.23;9.27;;;;;;;;;;4961082;28;20059;-88
2021/12/05 06:06:01;;;;;;;55.95;11.63;;;;;;;;;;4949219;28;20116;-88
2021/12/05 06:08:28;;;;;;;10.70;4.55;;;;;;;;;;4945783;28;20031;-88
2021/12/05 06:10:56;;;;;;;23.63;8.63;;;;;;;;;;4947729;28;20232;-87
2021/12/05 06:13:23;;;;;;;31.17;8.80;;;;;;;;;;4959545;28;20558;-88
2021/12/05 06:15:49;;;;;;;41.80;9.95;;;;;;;;;;4961211;28;20550;-87
2021/12/05 06:18:15;;;;;;;38.03;10.30;;;;;;;;;;4943866;28;20043;-88
2021/12/05 06:20:42;;;;;;;39.03;8.88;;;;;;;;;;4944208;28;20519;-88
2021/12/05 06:23:08;;;;;;;31.38;9.25;;;;;;;;;;4958279;28;20038;-88
2021/12/05 06:25:36;;;;;;;19.42;8.02;;;;;;;;;;4944442;28;20655;-88
2021/12/05 06:28:08;;;;;;;37.15;9.80;;;;;;;;;;4962351;28;20510;-88
2021/12/05 06:41:22;;;;;;;38.38;7.93;;;;;;;;;;4961958;28;20042;-88
2021/12/05 06:46:30;;;;;;;31.75;9.07;;;;;;;;;;4961866;28;20043;-89
2021/12/05 06:48:56;;;;;;;35.00;8.80;;;;;;;;;;4946195;28;20038;-87
2021/12/05 06:51:27;;;;;;;31.63;7.80;;;;;;;;;;4947135;28;20538;-88
2021/12/05 06:53:54;;;;;;;29.52;8.43;;;;;;;;;;4962112;28;20434;-87
2021/12/05 06:56:20;;;;;;;34.10;9.35;;;;;;;;;;4944647;28;20243;-87
2021/12/05 06:58:46;;;;;;;31.20;8.40;;;;;;;;;;4948179;28;20058;-88
2021/12/05 07:01:19;;;;;;;14.93;3.05;;;;;;;;;;4945851;28;20051;-87
2021/12/05 07:03:52;;;;;;;41.40;8.77;;;;;;;;;;4941347;28;20077;-87
2021/12/05 07:06:22;;;;;;;28.23;6.80;;;;;;;;;;4946435;28;20088;-88
2021/12/05 07:08:48;;;;;;;33.05;8.52;;;;;;;;;;4943268;28;20714;-87
2021/12/05 07:11:30;;;;;;;38.60;8.50;;;;;;;;;;4945031;28;20057;-87
2021/12/05 07:22:14;;;;;;;40.70;7.32;;;;;;;;;;4983265;28;20053;-88
2021/12/05 07:25:28;;;;;;;29.75;7.25;;;;;;;;;;4974397;28;20034;-87
2021/12/05 07:43:51;;;;;;;27.08;8.55;;;;;;;;;;4983108;28;20035;-88
2021/12/05 07:46:17;;;;;;;35.38;8.60;;;;;;;;;;4961649;28;20026;-87
2021/12/05 07:48:46;;;;;;;38.30;8.90;;;;;;;;;;4975620;28;20082;-88
2021/12/05 07:56:25;;;;;;;40.35;9.02;;;;;;;;;;4980727;28;20034;-89
2021/12/05 08:15:27;;;;;;;34.42;8.93;;;;;;;;;;4966915;28;20046;-87
2021/12/05 08:17:55;;;;;;;35.50;9.15;;;;;;;;;;4947070;28;20522;-88
2021/12/05 08:20:29;;;;;;;37.42;9.48;;;;;;;;;;4947092;28;20502;-88
2021/12/05 08:22:56;;;;;;;24.65;7.25;;;;;;;;;;4964017;28;20225;-87
2021/12/05 08:25:25;;;;;;;40.40;8.82;;;;;;;;;;4944930;28;20022;-87
2021/12/05 08:27:56;;;;;;;34.65;8.48;;;;;;;;;;4946828;28;20030;-87
2021/12/05 08:30:30;;;;;;;30.58;8.82;;;;;;;;;;4945620;28;20038;-89
2021/12/05 08:41:07;;;;;;;;;;;;;;;;;;4934934;28;20031;-87
2021/12/05 09:08:21;;;;;;;26.92;8.85;;;;;;;;;;4965755;28;20042;-88
2021/12/05 09:08:48;;;;;;;38.50;11.07;;;;;;;;;;4963976;28;20127;-87
2021/12/05 10:08:38;;;;;;;51.33;12.30;;;;;;;;;;4980617;28;20080;-88
2021/12/05 10:13:53;;;;;;;37.72;11.23;;;;;;;;;;4981201;28;20112;-88
2021/12/05 10:16:48;;;;;;;41.60;11.18;;;;;;;;;;4966751;28;20042;-88
2021/12/05 10:36:05;;;;;;;33.40;11.82;;;;;;;;;;4983120;28;20374;-88
2021/12/05 10:38:45;;;;;;;36.15;10.48;;;;;;;;;;4962066;28;20414;-89
2021/12/05 10:44:05;;;;;;;46.30;11.98;;;;;;;;;;4985359;28;20037;-88
2021/12/05 10:46:31;;;;;;;29.08;11.02;;;;;;;;;;4975317;28;20034;-87
2021/12/05 10:49:03;;;;;;;39.33;12.23;;;;;;;;;;4965577;28;20033;-90
2021/12/05 10:51:31;;;;;;;41.85;11.50;;;;;;;;;;4965209;28;20042;-87
2021/12/05 10:54:03;;;;;;;40.30;11.80;;;;;;;;;;4978698;28;20109;-90
2021/12/05 10:56:43;;;;;;;31.30;10.52;;;;;;;;;;4963028;28;20480;-89
2021/12/05 10:59:17;;;;;;;40.25;11.30;;;;;;;;;;4979880;28;20053;-89
2021/12/05 11:01:45;;;;;;;40.30;13.18;;;;;;;;;;4961608;28;20517;-89
2021/12/05 11:04:21;;;;;;;36.72;11.18;;;;;;;;;;4956625;28;20042;-88
2021/12/05 11:06:50;;;;;;;47.00;13.60;;;;;;;;;;4975254;28;20058;-87
2021/12/05 11:09:36;;;;;;;30.17;11.55;;;;;;;;;;4974910;28;20045;-88
2021/12/05 11:12:19;;;;;;;37.05;12.57;;;;;;;;;;4973336;28;20038;-88
2021/12/05 11:14:53;;;;;;;41.88;15.40;;;;;;;;;;4978094;28;20047;-90
2021/12/05 11:17:21;;;;;;;32.17;12.00;;;;;;;;;;4975760;28;20480;-89
2021/12/05 11:19:48;;;;;;;33.38;11.05;;;;;;;;;;4963854;28;20018;-90
2021/12/05 11:22:18;;;;;;;39.33;12.50;;;;;;;;;;4957965;28;20053;-90
2021/12/05 11:24:47;;;;;;;38.50;11.90;;;;;;;;;;4977788;28;20387;-90
2021/12/05 11:27:15;;;;;;;32.67;11.35;;;;;;;;;;4975843;28;20038;-88
2021/12/05 11:29:59;;;;;;;43.60;12.18;;;;;;;;;;4964467;28;20528;-88
2021/12/05 11:32:35;;;;;;;32.53;11.20;;;;;;;;;;4976081;28;20043;-88
2021/12/05 11:35:16;;;;;;;36.67;11.38;;;;;;;;;;4962203;28;20053;-87
2021/12/05 11:37:53;;;;;;;30.42;10.48;;;;;;;;;;4962020;28;20054;-88
2021/12/05 11:40:20;;;;;;;27.30;10.40;;;;;;;;;;4977885;28;20058;-89
2021/12/05 11:42:54;;;;;;;32.78;11.35;;;;;;;;;;4980226;28;20117;-88
2021/12/05 11:45:20;;;;;;;28.63;10.05;;;;;;;;;;4961952;28;20037;-87
2021/12/05 11:47:51;;;;;;;27.98;10.00;;;;;;;;;;4980508;28;20545;-86
2021/12/05 11:50:19;;;;;;;33.25;10.82;;;;;;;;;;4982056;28;20029;-87
2021/12/05 11:52:47;;;;;;;37.40;11.93;;;;;;;;;;4965212;28;20034;-88
2021/12/05 11:55:24;;;;;;;32.03;10.75;;;;;;;;;;4974430;28;20419;-87
2021/12/05 11:57:51;;;;;;;32.10;11.98;;;;;;;;;;4964072;28;20027;-82
2021/12/05 12:00:18;;;;;;;33.67;11.05;;;;;;;;;;4977353;28;20418;-88
2021/12/05 12:02:46;;;;;;;32.20;10.50;;;;;;;;;;4964687;28;20513;-90
2021/12/05 12:05:13;;;;;;;39.00;10.90;;;;;;;;;;4966920;28;20077;-91
2021/12/05 12:07:49;;;;;;;34.88;11.00;;;;;;;;;;4965170;28;20121;-90
2021/12/05 12:10:15;;;;;;;34.63;12.00;;;;;;;;;;4974180;28;20046;-90
2021/12/05 12:12:52;;;;;;;35.63;11.93;;;;;;;;;;4967265;28;20154;-90
2021/12/05 12:15:20;;;;;;;29.38;8.65;;;;;;;;;;4960568;28;20705;-89
2021/12/05 12:17:47;;;;;;;35.85;11.77;;;;;;;;;;4946696;28;20050;-89
2021/12/05 12:20:16;;;;;;;33.85;10.85;;;;;;;;;;4958577;28;20027;-89
2021/12/05 12:22:43;;;;;;;23.98;9.50;;;;;;;;;;4948283;28;20035;-90
2021/12/05 12:25:13;;;;;;;31.45;9.80;;;;;;;;;;4946630;28;20081;-90
2021/12/05 12:27:42;;;;;;;34.03;10.65;;;;;;;;;;4946957;28;20027;-89
2021/12/05 12:30:12;;;;;;;29.27;10.93;;;;;;;;;;4960048;28;20030;-89
2021/12/05 12:32:42;;;;;;;23.73;10.00;;;;;;;;;;4944189;28;20077;-90
2021/12/05 12:35:13;;;;;;;34.60;9.90;;;;;;;;;;4942130;28;20039;-89
2021/12/05 12:37:58;;;;;;;25.00;11.20;;;;;;;;;;4945819;28;20049;-89
2021/12/05 12:40:34;;;;;;;29.02;10.80;;;;;;;;;;4956561;28;20031;-89
2021/12/05 12:43:00;;;;;;;28.83;10.63;;;;;;;;;;4956538;28;20089;-90
2021/12/05 12:45:27;;;;;;;31.17;10.32;;;;;;;;;;4942380;28;20037;-90
2021/12/05 12:47:58;;;;;;;26.63;9.43;;;;;;;;;;4945728;28;20030;-89
2021/12/05 12:50:29;;;;;;;29.60;9.93;;;;;;;;;;4953238;28;20069;-89
2021/12/05 12:53:10;;;;;;;37.70;11.48;;;;;;;;;;4947006;28;20037;-89
2021/12/05 12:55:37;;;;;;;24.42;10.32;;;;;;;;;;4946685;28;20035;-89
2021/12/05 12:58:05;;;;;;;24.85;9.40;;;;;;;;;;4950121;28;20206;-89
2021/12/05 13:00:32;;;;;;;35.92;10.10;;;;;;;;;;4960940;28;20046;-89
2021/12/05 13:03:13;;;;;;;33.60;9.63;;;;;;;;;;4948115;28;20026;-90
2021/12/05 13:11:11;;;;;;;28.73;8.93;;;;;;;;;;4962855;28;20106;-90
2021/12/05 13:13:39;;;;;;;36.08;8.68;;;;;;;;;;4971264;28;20495;-89
2021/12/05 13:16:10;;;;;;;29.25;11.00;;;;;;;;;;4982982;28;20114;-90
2021/12/05 13:18:38;;;;;;;26.55;10.23;;;;;;;;;;4964537;28;20637;-89
2021/12/05 13:21:04;;;;;;;29.95;10.43;;;;;;;;;;4965356;28;20026;-89
2021/12/05 13:23:47;;;;;;;37.10;9.80;;;;;;;;;;4964728;28;20053;-89
2021/12/05 13:26:13;;;;;;;34.53;8.90;;;;;;;;;;4964846;28;20406;-88
2021/12/05 13:28:43;;;;;;;30.42;8.85;;;;;;;;;;4980357;28;20035;-90
2021/12/05 13:31:27;;;;;;;24.33;9.32;;;;;;;;;;4967866;28;20041;-87
2021/12/05 13:34:12;;;;;;;18.77;7.72;;;;;;;;;;4973075;28;20037;-87
2021/12/05 13:36:38;;;;;;;30.65;9.65;;;;;;;;;;4978570;28;20030;-87
2021/12/05 13:39:24;;;;;;;22.40;8.02;;;;;;;;;;4959590;28;20121;-88
2021/12/05 13:42:22;;;;;;;29.63;9.18;;;;;;;;;;4957971;28;20074;-86
2021/12/05 13:45:00;;;;;;;26.33;8.30;;;;;;;;;;4951286;28;20263;-87
2021/12/05 13:47:39;;;;;;;32.85;9.25;;;;;;;;;;4980336;28;20045;-87
2021/12/05 13:50:29;;;;;;;24.55;9.27;;;;;;;;;;4957666;28;20379;-86
2021/12/05 13:53:08;;;;;;;23.67;8.48;;;;;;;;;;4974136;28;20042;-87
2021/12/05 13:55:37;;;;;;;21.33;8.55;;;;;;;;;;4977204;28;20628;-87
2021/12/05 13:58:17;;;;;;;20.13;7.38;;;;;;;;;;4979202;28;20453;-87
2021/12/05 14:00:46;;;;;;;18.27;7.25;;;;;;;;;;4978146;28;20880;-87
2021/12/05 14:03:12;;;;;;;27.25;8.95;;;;;;;;;;4962567;28;20034;-88
2021/12/05 14:05:46;;;;;;;21.17;8.82;;;;;;;;;;4961505;28;20401;-87
2021/12/05 14:08:12;;;;;;;25.80;8.60;;;;;;;;;;4982157;28;20070;-87
2021/12/05 14:10:44;;;;;;;26.02;8.65;;;;;;;;;;4963622;28;20034;-87
2021/12/05 14:13:18;;;;;;;28.48;10.38;;;;;;;;;;4980249;28;20215;-87
2021/12/05 14:15:57;;;;;;;32.17;10.02;;;;;;;;;;4976422;28;20034;-87
2021/12/05 14:18:24;;;;;;;31.23;12.10;;;;;;;;;;4968064;28;20521;-87
2021/12/05 14:20:50;;;;;;;35.78;13.63;;;;;;;;;;4958508;28;20158;-87
2021/12/05 14:23:22;;;;;;;28.85;12.25;;;;;;;;;;4970270;28;20104;-87
2021/12/05 14:25:48;;;;;;;29.40;12.32;;;;;;;;;;4980118;28;20643;-86
2021/12/05 14:28:14;;;;;;;28.13;10.65;;;;;;;;;;4967793;28;20529;-87
2021/12/05 14:30:42;;;;;;;26.17;10.30;;;;;;;;;;4978815;28;20031;-87
2021/12/05 14:33:08;;;;;;;33.00;11.00;;;;;;;;;;4965191;28;20061;-87
2021/12/05 14:35:39;;;;;;;44.38;12.65;;;;;;;;;;4967304;28;20030;-87
2021/12/05 14:38:07;;;;;;;30.08;10.95;;;;;;;;;;4979014;28;20739;-87
2021/12/05 14:40:34;;;;;;;37.08;11.43;;;;;;;;;;4964227;28;20065;-87
2021/12/05 14:43:03;;;;;;;29.92;10.98;;;;;;;;;;4963677;28;20498;-88
2021/12/05 14:45:30;;;;;;;29.88;11.23;;;;;;;;;;4976587;28;20045;-88
2021/12/05 14:47:59;;;;;;;33.72;11.95;;;;;;;;;;4976148;28;20062;-86
2021/12/05 14:50:32;;;;;;;27.38;12.82;;;;;;;;;;4979978;28;20034;-86
2021/12/05 14:53:00;;;;;;;37.30;12.27;;;;;;;;;;4977408;28;20135;-88
2021/12/05 14:55:27;;;;;;;31.20;12.13;;;;;;;;;;4959985;28;20026;-87
2021/12/05 14:57:55;;;;;;;28.42;11.50;;;;;;;;;;4952759;28;20026;-88
2021/12/05 15:00:26;;;;;;;31.30;11.63;;;;;;;;;;4973134;28;20038;-87
2021/12/05 15:03:07;;;;;;;33.53;12.18;;;;;;;;;;4977262;28;20398;-87
2021/12/05 15:05:34;;;;;;;39.03;13.98;;;;;;;;;;4963389;28;20038;-87
2021/12/05 15:08:05;;;;;;;33.10;12.75;;;;;;;;;;4968168;28;20088;-86
2021/12/05 15:10:31;;;;;;;38.58;12.25;;;;;;;;;;4966789;28;20043;-88
2021/12/05 15:12:57;;;;;;;36.97;12.15;;;;;;;;;;4967236;28;20765;-88
2021/12/05 15:15:24;;;;;;;35.30;11.68;;;;;;;;;;4967066;28;20398;-87
2021/12/05 15:17:50;;;;;;;42.40;12.43;;;;;;;;;;4965720;28;20034;-87
2021/12/05 15:20:18;;;;;;;27.60;12.52;;;;;;;;;;4967238;28;20034;-88
2021/12/05 15:22:45;;;;;;;26.30;12.95;;;;;;;;;;4962401;28;20516;-87
2021/12/05 15:25:16;;;;;;;40.25;12.80;;;;;;;;;;4983330;28;20120;-87
2021/12/05 15:27:43;;;;;;;37.35;11.77;;;;;;;;;;4981698;28;20682;-86
2021/12/05 15:30:20;;;;;;;34.15;11.68;;;;;;;;;;4967727;28;20032;-88
2021/12/05 15:32:50;;;;;;;32.55;13.15;;;;;;;;;;4964855;28;20046;-87
2021/12/05 15:35:17;;;;;;;32.10;11.82;;;;;;;;;;4958489;28;20482;-86
2021/12/05 15:37:57;;;;;;;40.80;12.35;;;;;;;;;;4958086;28;20030;-89
2021/12/05 15:40:24;;;;;;;41.63;13.15;;;;;;;;;;4957216;28;20038;-87
2021/12/05 15:42:50;;;;;;;35.63;12.93;;;;;;;;;;4980577;28;20152;-87
2021/12/05 15:45:18;;;;;;;30.85;12.35;;;;;;;;;;4979533;28;20413;-86
2021/12/05 15:47:46;;;;;;;41.28;15.32;;;;;;;;;;4961473;28;20038;-86
2021/12/05 15:50:13;;;;;;;42.35;15.10;;;;;;;;;;4958077;28;20030;-83
2021/12/05 15:52:41;;;;;;;44.60;14.73;;;;;;;;;;4977122;28;20044;-86
2021/12/05 15:55:12;;;;;;;44.55;16.38;;;;;;;;;;4981910;28;20113;-87
2021/12/05 15:57:40;;;;;;;41.13;14.55;;;;;;;;;;4974569;28;20035;-87
2021/12/05 16:00:12;;;;;;;41.10;16.42;;;;;;;;;;4965669;28;20687;-86
2021/12/05 16:02:41;;;;;;;46.63;16.63;;;;;;;;;;4977066;28;20517;-87
2021/12/05 16:05:14;;;;;;;33.42;14.65;;;;;;;;;;4978712;28;20085;-87
2021/12/05 16:07:40;;;;;;;46.40;15.68;;;;;;;;;;4977620;28;20043;-86
2021/12/05 16:10:14;;;;;;;40.70;15.82;;;;;;;;;;4980709;28;20355;-86
2021/12/05 16:12:41;;;;;;;40.58;15.05;;;;;;;;;;4974898;28;20042;-87
2021/12/05 16:15:08;;;;;;;45.13;15.02;;;;;;;;;;4980813;28;20457;-86
2021/12/05 16:17:35;;;;;;;40.75;15.88;;;;;;;;;;4963736;28;20483;-86
2021/12/05 16:20:01;;;;;;;45.75;14.80;;;;;;;;;;4978230;28;20034;-87
2021/12/05 16:22:27;;;;;;;42.15;16.58;;;;;;;;;;4981730;28;20076;-87
2021/12/05 16:24:53;;;;;;;37.10;14.90;;;;;;;;;;4967808;28;20042;-87
2021/12/05 16:27:19;;;;;;;44.67;16.23;;;;;;;;;;4967986;28;20129;-87
2021/12/05 16:29:45;;;;;;;39.45;15.15;;;;;;;;;;4971488;28;20121;-87
2021/12/05 16:32:12;;;;;;;49.35;18.05;;;;;;;;;;4971174;28;20042;-87
2021/12/05 16:34:43;;;;;;;46.58;16.25;;;;;;;;;;4986692;28;20029;-88
2021/12/05 16:37:10;;;;;;;45.65;17.23;;;;;;;;;;4971831;28;20346;-88
2021/12/05 16:39:41;;;;;;;46.70;16.38;;;;;;;;;;4968299;28;20042;-86
2021/12/05 16:42:09;;;;;;;45.70;16.33;;;;;;;;;;4968623;28;20093;-87
2021/12/05 16:44:39;;;;;;;41.67;17.50;;;;;;;;;;4982612;28;20062;-88
2021/12/05 16:47:10;;;;;;;41.97;17.83;;;;;;;;;;4968618;28;20030;-87
2021/12/05 16:49:37;;;;;;;60.80;20.55;;;;;;;;;;4969622;28;20049;-87
2021/12/05 16:52:05;;;;;;;51.47;18.95;;;;;;;;;;4984958;28;20116;-87
2021/12/05 16:54:34;;;;;;;56.47;19.65;;;;;;;;;;4966937;28;20042;-87
2021/12/05 16:57:06;;;;;;;52.22;20.45;;;;;;;;;;4970399;28;20037;-87
2021/12/05 16:59:39;;;;;;;51.97;17.67;;;;;;;;;;4985449;28;20026;-88
2021/12/05 17:02:15;;;;;;;53.67;18.33;;;;;;;;;;4985547;28;20128;-88
2021/12/05 17:05:01;;;;;;;46.42;18.08;;;;;;;;;;4979840;28;20026;-88
2021/12/05 17:07:27;;;;;;;;;;;;;;;;;;4980791;28;20038;-87
2021/12/05 17:09:53;;;;;;;45.45;16.63;;;;;;;;;;4970958;28;19913;-88
2021/12/05 17:12:25;;;;;;;47.75;17.63;;;;;;;;;;4969976;28;20534;-88
2021/12/05 17:14:51;;;;;;;46.60;17.73;;;;;;;;;;4982134;28;20050;-88
2021/12/05 17:17:33;;;;;;;51.47;18.20;;;;;;;;;;4969125;28;20133;-87
2021/12/05 17:20:17;;;;;;;61.97;18.30;;;;;;;;;;4971515;28;20498;-88
2021/12/05 17:22:50;;;;;;;45.75;17.15;;;;;;;;;;4967988;28;20385;-88
2021/12/05 17:25:26;;;;;;;57.53;17.42;;;;;;;;;;4986583;28;20058;-87
2021/12/05 17:27:52;;;;;;;46.78;18.10;;;;;;;;;;4965082;28;20030;-87
2021/12/05 17:30:19;;;;;;;49.20;17.60;;;;;;;;;;4977979;28;20038;-87
2021/12/05 17:32:45;;;;;;;50.00;17.88;;;;;;;;;;4980339;28;20502;-88
2021/12/05 17:35:11;;;;;;;48.58;16.90;;;;;;;;;;4986768;28;20038;-88
2021/12/05 17:37:37;;;;;;;51.80;16.50;;;;;;;;;;4968467;28;20037;-87
2021/12/05 17:40:06;;;;;;;41.97;15.90;;;;;;;;;;4970207;28;20061;-87
2021/12/05 17:42:32;;;;;;;39.55;16.08;;;;;;;;;;4984893;28;20466;-87
2021/12/05 17:45:00;;;;;;;39.78;16.02;;;;;;;;;;4967770;28;20030;-87
2021/12/05 17:47:27;;;;;;;42.25;14.73;;;;;;;;;;4963888;28;20508;-88
2021/12/05 17:49:56;;;;;;;47.55;16.08;;;;;;;;;;4968662;28;20402;-88
2021/12/05 17:52:24;;;;;;;39.47;15.27;;;;;;;;;;4980809;28;20097;-87
2021/12/05 17:54:55;;;;;;;43.25;17.05;;;;;;;;;;4982355;28;20030;-87
2021/12/05 17:57:32;;;;;;;45.38;17.40;;;;;;;;;;4982757;28;20049;-87
2021/12/05 18:00:12;;;;;;;48.80;16.67;;;;;;;;;;4979079;28;20023;-87
2021/12/05 18:02:53;;;;;;;44.42;16.95;;;;;;;;;;4981123;28;20034;-88
2021/12/05 18:05:22;;;;;;;47.17;16.80;;;;;;;;;;4983763;28;20423;-89
2021/12/05 18:07:49;;;;;;;38.70;14.25;;;;;;;;;;4981916;28;20022;-88
2021/12/05 18:10:16;;;;;;;32.58;14.65;;;;;;;;;;4961405;28;20498;-88
2021/12/05 18:12:44;;;;;;;30.38;13.52;;;;;;;;;;4980925;28;20077;-87
2021/12/05 18:15:26;;;;;;;37.50;14.02;;;;;;;;;;4977280;28;20074;-87
2021/12/05 18:17:59;;;;;;;39.45;14.68;;;;;;;;;;4976850;28;20755;-87
2021/12/05 18:20:27;;;;;;;44.42;17.35;;;;;;;;;;4977973;28;20039;-87
2021/12/05 18:22:54;;;;;;;42.35;17.15;;;;;;;;;;4965225;28;20109;-87
2021/12/05 18:25:21;;;;;;;45.90;17.58;;;;;;;;;;4959246;28;20810;-87
2021/12/05 18:27:47;;;;;;;41.08;17.85;;;;;;;;;;4968069;28;20545;-88
2021/12/05 18:30:14;;;;;;;37.45;15.90;;;;;;;;;;4964587;28;20685;-87
2021/12/05 18:32:40;;;;;;;48.13;17.65;;;;;;;;;;4972645;28;20096;-88
2021/12/05 18:35:07;;;;;;;37.65;15.57;;;;;;;;;;4967543;28;20309;-88
2021/12/05 18:37:33;;;;;;;45.28;17.98;;;;;;;;;;4979702;28;20728;-87
2021/12/05 18:39:59;;;;;;;42.20;19.27;;;;;;;;;;4966586;28;20045;-87
2021/12/05 18:42:25;;;;;;;42.45;17.75;;;;;;;;;;4964995;28;20510;-87
2021/12/05 18:44:56;;;;;;;44.30;16.63;;;;;;;;;;4961907;28;20042;-88
2021/12/05 18:47:23;;;;;;;37.85;15.98;;;;;;;;;;4981613;28;20201;-87
2021/12/05 18:49:49;;;;;;;39.55;16.63;;;;;;;;;;4964271;28;20030;-87
2021/12/05 18:52:16;;;;;;;37.65;16.73;;;;;;;;;;4963099;28;20499;-89
2021/12/05 18:54:45;;;;;;;49.70;16.38;;;;;;;;;;4981631;28;20478;-87
2021/12/05 18:57:12;;;;;;;44.85;16.92;;;;;;;;;;4961485;28;20043;-88
2021/12/05 18:59:46;;;;;;;44.70;16.25;;;;;;;;;;4967556;28;20026;-87
2021/12/05 19:05:00;;;;;;;37.40;16.85;;;;;;;;;;4983100;28;20136;-87
2021/12/05 19:07:41;;;;;;;37.55;16.48;;;;;;;;;;4974811;28;20671;-87
2021/12/05 19:12:52;;;;;;;39.88;17.63;;;;;;;;;;4979713;28;20037;-86
2021/12/05 19:15:18;;;;;;;42.13;18.35;;;;;;;;;;4957981;28;20047;-87
2021/12/05 19:17:44;;;;;;;42.13;19.05;;;;;;;;;;4957740;28;20175;-88
2021/12/05 19:20:14;;;;;;;41.75;18.90;;;;;;;;;;4963634;28;20062;-87
2021/12/05 19:22:40;;;;;;;42.58;17.80;;;;;;;;;;4957811;28;20070;-88
2021/12/05 19:25:09;;;;;;;45.53;18.63;;;;;;;;;;4946981;28;20665;-86
2021/12/05 19:27:35;;;;;;;48.15;19.45;;;;;;;;;;4959390;28;20613;-86
2021/12/05 19:30:01;;;;;;;43.35;19.27;;;;;;;;;;4961074;28;20034;-87
2021/12/05 19:32:28;;;;;;;46.85;18.67;;;;;;;;;;4946789;28;20058;-87
2021/12/05 19:34:55;;;;;;;38.85;17.27;;;;;;;;;;4964565;28;20038;-86
2021/12/05 19:37:22;;;;;;;39.05;16.48;;;;;;;;;;4942240;28;20494;-86
2021/12/05 19:39:48;;;;;;;40.92;16.52;;;;;;;;;;4947247;28;20097;-87
2021/12/05 19:42:15;;;;;;;28.60;13.90;;;;;;;;;;4944727;28;20171;-87
2021/12/05 19:44:41;;;;;;;31.30;13.27;;;;;;;;;;4947248;28;20403;-86
2021/12/05 19:47:07;;;;;;;26.58;12.35;;;;;;;;;;4957356;28;20169;-86
2021/12/05 19:49:36;;;;;;;29.73;13.02;;;;;;;;;;4944781;28;20042;-86
2021/12/05 19:52:03;;;;;;;30.13;13.75;;;;;;;;;;4958084;28;20046;-86